sensor_id;sensor_type;location;lat;lon;timestamp;P1;durP1;ratioP1;P2;durP2;ratioP2
45326;SDS011;31062;49.678;24.560;2024-01-30T00:00:50;30.02;;;11.75;;
45326;SDS011;31062;49.678;24.560;2024-01-30T00:03:36;34.15;;;12.05;;
45326;SDS011;31062;49.678;24.560;2024-01-30T00:06:21;25.48;;;9.73;;
45326;SDS011;31062;49.678;24.560;2024-01-30T00:09:07;15.02;;;8.40;;
45326;SDS011;31062;49.678;24.560;2024-01-30T00:11:54;27.17;;;10.15;;
45326;SDS011;31062;49.678;24.560;2024-01-30T00:14:41;16.50;;;9.60;;
45326;SDS011;31062;49.678;24.560;2024-01-30T00:17:47;26.75;;;11.40;;
45326;SDS011;31062;49.678;24.560;2024-01-30T00:20:53;26.17;;;10.73;;
45326;SDS011;31062;49.678;24.560;2024-01-30T00:23:58;26.98;;;13.20;;
45326;SDS011;31062;49.678;24.560;2024-01-30T00:26:44;24.52;;;11.88;;
45326;SDS011;31062;49.678;24.560;2024-01-30T00:29:30;21.05;;;10.13;;
45326;SDS011;31062;49.678;24.560;2024-01-30T00:32:20;17.95;;;8.95;;
45326;SDS011;31062;49.678;24.560;2024-01-30T00:35:06;19.92;;;10.13;;
45326;SDS011;31062;49.678;24.560;2024-01-30T00:37:52;20.25;;;11.05;;
45326;SDS011;31062;49.678;24.560;2024-01-30T00:40:38;24.23;;;12.07;;
45326;SDS011;31062;49.678;24.560;2024-01-30T00:43:24;22.45;;;10.75;;
45326;SDS011;31062;49.678;24.560;2024-01-30T00:46:13;20.40;;;10.32;;
45326;SDS011;31062;49.678;24.560;2024-01-30T00:48:59;19.38;;;9.20;;
45326;SDS011;31062;49.678;24.560;2024-01-30T00:51:45;17.95;;;9.15;;
45326;SDS011;31062;49.678;24.560;2024-01-30T00:54:31;23.58;;;10.75;;
45326;SDS011;31062;49.678;24.560;2024-01-30T00:57:34;24.40;;;10.52;;
45326;SDS011;31062;49.678;24.560;2024-01-30T01:00:19;17.10;;;9.80;;
45326;SDS011;31062;49.678;24.560;2024-01-30T01:03:06;19.30;;;10.02;;
45326;SDS011;31062;49.678;24.560;2024-01-30T01:06:00;19.60;;;10.68;;
45326;SDS011;31062;49.678;24.560;2024-01-30T01:08:45;21.20;;;9.25;;
45326;SDS011;31062;49.678;24.560;2024-01-30T01:11:31;20.50;;;9.80;;
45326;SDS011;31062;49.678;24.560;2024-01-30T01:14:17;19.17;;;10.63;;
45326;SDS011;31062;49.678;24.560;2024-01-30T01:17:23;16.35;;;8.85;;
45326;SDS011;31062;49.678;24.560;2024-01-30T01:20:30;18.75;;;8.93;;
45326;SDS011;31062;49.678;24.560;2024-01-30T01:23:15;21.08;;;9.52;;
45326;SDS011;31062;49.678;24.560;2024-01-30T01:26:02;22.27;;;10.38;;
45326;SDS011;31062;49.678;24.560;2024-01-30T01:28:48;23.25;;;9.73;;
45326;SDS011;31062;49.678;24.560;2024-01-30T01:31:54;23.77;;;10.70;;
45326;SDS011;31062;49.678;24.560;2024-01-30T01:35:02;18.55;;;10.52;;
45326;SDS011;31062;49.678;24.560;2024-01-30T01:37:49;23.80;;;10.85;;
45326;SDS011;31062;49.678;24.560;2024-01-30T01:40:40;22.48;;;11.75;;
45326;SDS011;31062;49.678;24.560;2024-01-30T01:43:26;25.23;;;11.82;;
45326;SDS011;31062;49.678;24.560;2024-01-30T01:46:12;27.42;;;11.85;;
45326;SDS011;31062;49.678;24.560;2024-01-30T01:49:18;30.60;;;12.80;;
45326;SDS011;31062;49.678;24.560;2024-01-30T01:52:05;24.58;;;11.68;;
45326;SDS011;31062;49.678;24.560;2024-01-30T01:55:07;24.55;;;11.05;;
45326;SDS011;31062;49.678;24.560;2024-01-30T01:57:56;26.58;;;11.20;;
45326;SDS011;31062;49.678;24.560;2024-01-30T02:01:03;27.15;;;12.50;;
45326;SDS011;31062;49.678;24.560;2024-01-30T02:04:10;27.33;;;12.35;;
45326;SDS011;31062;49.678;24.560;2024-01-30T02:06:56;19.65;;;10.60;;
45326;SDS011;31062;49.678;24.560;2024-01-30T02:09:43;26.13;;;12.02;;
45326;SDS011;31062;49.678;24.560;2024-01-30T02:12:29;27.55;;;12.45;;
45326;SDS011;31062;49.678;24.560;2024-01-30T02:15:19;21.75;;;11.38;;
45326;SDS011;31062;49.678;24.560;2024-01-30T02:18:05;27.92;;;12.95;;
45326;SDS011;31062;49.678;24.560;2024-01-30T02:20:51;25.98;;;10.52;;
45326;SDS011;31062;49.678;24.560;2024-01-30T02:23:39;23.48;;;11.77;;
45326;SDS011;31062;49.678;24.560;2024-01-30T02:26:27;25.80;;;11.40;;
45326;SDS011;31062;49.678;24.560;2024-01-30T02:29:33;31.73;;;12.68;;
45326;SDS011;31062;49.678;24.560;2024-01-30T02:32:29;28.63;;;10.55;;
45326;SDS011;31062;49.678;24.560;2024-01-30T02:35:15;30.52;;;14.50;;
45326;SDS011;31062;49.678;24.560;2024-01-30T02:38:02;27.65;;;12.90;;
45326;SDS011;31062;49.678;24.560;2024-01-30T02:40:50;19.05;;;10.65;;
45326;SDS011;31062;49.678;24.560;2024-01-30T02:43:36;26.60;;;13.60;;
45326;SDS011;31062;49.678;24.560;2024-01-30T02:46:21;28.90;;;11.40;;
45326;SDS011;31062;49.678;24.560;2024-01-30T02:49:07;27.15;;;12.48;;
45326;SDS011;31062;49.678;24.560;2024-01-30T02:51:53;28.45;;;10.60;;
45326;SDS011;31062;49.678;24.560;2024-01-30T02:54:39;23.35;;;12.50;;
45326;SDS011;31062;49.678;24.560;2024-01-30T02:57:25;23.65;;;12.40;;
45326;SDS011;31062;49.678;24.560;2024-01-30T03:00:11;24.17;;;11.88;;
45326;SDS011;31062;49.678;24.560;2024-01-30T03:02:57;22.60;;;12.18;;
45326;SDS011;31062;49.678;24.560;2024-01-30T03:05:44;24.05;;;11.85;;
45326;SDS011;31062;49.678;24.560;2024-01-30T03:08:30;31.50;;;13.43;;
45326;SDS011;31062;49.678;24.560;2024-01-30T03:11:15;26.33;;;11.88;;
45326;SDS011;31062;49.678;24.560;2024-01-30T03:14:01;22.05;;;10.45;;
45326;SDS011;31062;49.678;24.560;2024-01-30T03:16:47;27.98;;;12.05;;
45326;SDS011;31062;49.678;24.560;2024-01-30T03:19:33;32.63;;;13.85;;
45326;SDS011;31062;49.678;24.560;2024-01-30T03:22:19;29.67;;;12.02;;
45326;SDS011;31062;49.678;24.560;2024-01-30T03:25:06;26.83;;;14.07;;
45326;SDS011;31062;49.678;24.560;2024-01-30T03:27:51;23.30;;;12.13;;
45326;SDS011;31062;49.678;24.560;2024-01-30T03:30:37;27.70;;;12.73;;
45326;SDS011;31062;49.678;24.560;2024-01-30T03:33:43;29.67;;;14.07;;
45326;SDS011;31062;49.678;24.560;2024-01-30T03:36:49;31.85;;;12.63;;
45326;SDS011;31062;49.678;24.560;2024-01-30T03:39:55;31.15;;;13.82;;
45326;SDS011;31062;49.678;24.560;2024-01-30T03:43:01;29.65;;;13.27;;
45326;SDS011;31062;49.678;24.560;2024-01-30T03:45:50;26.58;;;12.90;;
45326;SDS011;31062;49.678;24.560;2024-01-30T03:48:55;27.40;;;15.35;;
45326;SDS011;31062;49.678;24.560;2024-01-30T03:52:02;23.60;;;12.98;;
45326;SDS011;31062;49.678;24.560;2024-01-30T03:55:04;28.83;;;11.70;;
45326;SDS011;31062;49.678;24.560;2024-01-30T03:57:51;30.35;;;13.63;;
45326;SDS011;31062;49.678;24.560;2024-01-30T04:00:56;22.80;;;11.57;;
45326;SDS011;31062;49.678;24.560;2024-01-30T04:04:02;29.30;;;14.10;;
45326;SDS011;31062;49.678;24.560;2024-01-30T04:07:08;28.17;;;13.30;;
45326;SDS011;31062;49.678;24.560;2024-01-30T04:10:13;36.25;;;14.43;;
45326;SDS011;31062;49.678;24.560;2024-01-30T04:13:00;30.70;;;14.77;;
45326;SDS011;31062;49.678;24.560;2024-01-30T04:16:06;31.50;;;14.38;;
45326;SDS011;31062;49.678;24.560;2024-01-30T04:19:11;31.17;;;14.65;;
45326;SDS011;31062;49.678;24.560;2024-01-30T04:22:17;35.03;;;15.38;;
45326;SDS011;31062;49.678;24.560;2024-01-30T04:25:03;32.20;;;14.02;;
45326;SDS011;31062;49.678;24.560;2024-01-30T04:27:49;31.20;;;15.45;;
45326;SDS011;31062;49.678;24.560;2024-01-30T04:30:35;37.05;;;16.48;;
45326;SDS011;31062;49.678;24.560;2024-01-30T04:33:40;28.85;;;13.48;;
45326;SDS011;31062;49.678;24.560;2024-01-30T04:36:26;41.63;;;15.85;;
45326;SDS011;31062;49.678;24.560;2024-01-30T04:39:34;38.65;;;15.05;;
45326;SDS011;31062;49.678;24.560;2024-01-30T04:42:21;41.90;;;15.75;;
45326;SDS011;31062;49.678;24.560;2024-01-30T04:45:07;35.80;;;15.75;;
45326;SDS011;31062;49.678;24.560;2024-01-30T04:48:13;41.15;;;19.17;;
45326;SDS011;31062;49.678;24.560;2024-01-30T04:51:00;34.72;;;14.43;;
45326;SDS011;31062;49.678;24.560;2024-01-30T04:54:06;34.08;;;15.63;;
45326;SDS011;31062;49.678;24.560;2024-01-30T04:56:51;28.02;;;14.20;;
45326;SDS011;31062;49.678;24.560;2024-01-30T04:59:37;37.47;;;14.45;;
45326;SDS011;31062;49.678;24.560;2024-01-30T05:02:26;44.35;;;15.48;;
45326;SDS011;31062;49.678;24.560;2024-01-30T05:05:14;46.05;;;17.75;;
45326;SDS011;31062;49.678;24.560;2024-01-30T05:08:20;45.15;;;17.90;;
45326;SDS011;31062;49.678;24.560;2024-01-30T05:11:26;38.75;;;17.67;;
45326;SDS011;31062;49.678;24.560;2024-01-30T05:14:31;44.17;;;16.63;;
45326;SDS011;31062;49.678;24.560;2024-01-30T05:17:38;43.03;;;19.23;;
45326;SDS011;31062;49.678;24.560;2024-01-30T05:20:24;40.47;;;16.73;;
45326;SDS011;31062;49.678;24.560;2024-01-30T05:23:13;36.17;;;17.25;;
45326;SDS011;31062;49.678;24.560;2024-01-30T05:25:59;40.22;;;18.00;;
45326;SDS011;31062;49.678;24.560;2024-01-30T05:28:46;33.00;;;15.65;;
45326;SDS011;31062;49.678;24.560;2024-01-30T05:31:33;34.50;;;14.65;;
45326;SDS011;31062;49.678;24.560;2024-01-30T05:34:39;50.78;;;18.33;;
45326;SDS011;31062;49.678;24.560;2024-01-30T05:37:45;39.58;;;17.55;;
45326;SDS011;31062;49.678;24.560;2024-01-30T05:40:51;37.78;;;14.85;;
45326;SDS011;31062;49.678;24.560;2024-01-30T05:43:56;46.78;;;16.40;;
45326;SDS011;31062;49.678;24.560;2024-01-30T05:47:04;27.05;;;11.73;;
45326;SDS011;31062;49.678;24.560;2024-01-30T05:50:10;33.35;;;14.75;;
45326;SDS011;31062;49.678;24.560;2024-01-30T05:52:57;35.58;;;14.48;;
45326;SDS011;31062;49.678;24.560;2024-01-30T05:55:42;34.85;;;14.93;;
45326;SDS011;31062;49.678;24.560;2024-01-30T05:58:28;36.58;;;15.00;;
45326;SDS011;31062;49.678;24.560;2024-01-30T06:01:34;37.70;;;15.35;;
45326;SDS011;31062;49.678;24.560;2024-01-30T06:04:20;39.25;;;16.23;;
45326;SDS011;31062;49.678;24.560;2024-01-30T06:07:06;39.15;;;16.08;;
45326;SDS011;31062;49.678;24.560;2024-01-30T06:09:53;31.05;;;12.32;;
45326;SDS011;31062;49.678;24.560;2024-01-30T06:12:39;30.42;;;11.65;;
45326;SDS011;31062;49.678;24.560;2024-01-30T06:15:25;41.28;;;15.88;;
45326;SDS011;31062;49.678;24.560;2024-01-30T06:18:31;33.65;;;12.82;;
45326;SDS011;31062;49.678;24.560;2024-01-30T06:21:18;35.95;;;15.10;;
45326;SDS011;31062;49.678;24.560;2024-01-30T06:24:04;25.67;;;11.18;;
45326;SDS011;31062;49.678;24.560;2024-01-30T06:26:50;37.08;;;13.48;;
45326;SDS011;31062;49.678;24.560;2024-01-30T06:29:36;35.97;;;14.93;;
45326;SDS011;31062;49.678;24.560;2024-01-30T06:32:21;32.25;;;11.20;;
45326;SDS011;31062;49.678;24.560;2024-01-30T06:35:07;32.17;;;14.13;;
45326;SDS011;31062;49.678;24.560;2024-01-30T06:38:12;32.65;;;12.20;;
45326;SDS011;31062;49.678;24.560;2024-01-30T06:41:18;34.05;;;12.15;;
45326;SDS011;31062;49.678;24.560;2024-01-30T06:44:24;22.15;;;9.95;;
45326;SDS011;31062;49.678;24.560;2024-01-30T06:47:10;33.20;;;16.88;;
45326;SDS011;31062;49.678;24.560;2024-01-30T06:49:57;29.40;;;13.68;;
45326;SDS011;31062;49.678;24.560;2024-01-30T06:52:43;31.95;;;13.27;;
45326;SDS011;31062;49.678;24.560;2024-01-30T06:55:28;26.52;;;12.57;;
45326;SDS011;31062;49.678;24.560;2024-01-30T06:58:14;26.00;;;10.05;;
45326;SDS011;31062;49.678;24.560;2024-01-30T07:01:20;32.58;;;13.95;;
45326;SDS011;31062;49.678;24.560;2024-01-30T07:04:26;33.92;;;13.65;;
45326;SDS011;31062;49.678;24.560;2024-01-30T07:07:12;24.38;;;11.60;;
45326;SDS011;31062;49.678;24.560;2024-01-30T07:10:00;27.60;;;11.60;;
45326;SDS011;31062;49.678;24.560;2024-01-30T07:13:06;29.17;;;11.13;;
45326;SDS011;31062;49.678;24.560;2024-01-30T07:15:52;31.17;;;12.68;;
45326;SDS011;31062;49.678;24.560;2024-01-30T07:18:58;31.90;;;12.82;;
45326;SDS011;31062;49.678;24.560;2024-01-30T07:22:03;32.80;;;13.00;;
45326;SDS011;31062;49.678;24.560;2024-01-30T07:24:54;46.28;;;18.05;;
45326;SDS011;31062;49.678;24.560;2024-01-30T07:27:40;50.35;;;20.88;;
45326;SDS011;31062;49.678;24.560;2024-01-30T07:30:26;33.70;;;12.00;;
45326;SDS011;31062;49.678;24.560;2024-01-30T07:33:31;20.70;;;10.85;;
45326;SDS011;31062;49.678;24.560;2024-01-30T07:36:37;33.70;;;10.25;;
45326;SDS011;31062;49.678;24.560;2024-01-30T07:39:24;32.17;;;13.05;;
45326;SDS011;31062;49.678;24.560;2024-01-30T07:42:10;29.90;;;12.07;;
45326;SDS011;31062;49.678;24.560;2024-01-30T07:44:55;35.38;;;14.18;;
45326;SDS011;31062;49.678;24.560;2024-01-30T07:47:41;30.70;;;13.02;;
45326;SDS011;31062;49.678;24.560;2024-01-30T07:50:28;39.10;;;14.80;;
45326;SDS011;31062;49.678;24.560;2024-01-30T07:53:14;31.55;;;13.23;;
45326;SDS011;31062;49.678;24.560;2024-01-30T07:56:00;39.42;;;14.13;;
45326;SDS011;31062;49.678;24.560;2024-01-30T07:58:46;35.15;;;13.48;;
45326;SDS011;31062;49.678;24.560;2024-01-30T08:01:51;27.67;;;12.30;;
45326;SDS011;31062;49.678;24.560;2024-01-30T08:04:37;29.73;;;11.82;;
45326;SDS011;31062;49.678;24.560;2024-01-30T08:07:43;23.63;;;11.25;;
45326;SDS011;31062;49.678;24.560;2024-01-30T08:10:31;33.60;;;12.60;;
45326;SDS011;31062;49.678;24.560;2024-01-30T08:13:36;43.05;;;14.13;;
45326;SDS011;31062;49.678;24.560;2024-01-30T08:16:42;30.90;;;13.60;;
45326;SDS011;31062;49.678;24.560;2024-01-30T08:19:47;35.88;;;12.98;;
45326;SDS011;31062;49.678;24.560;2024-01-30T08:22:54;31.05;;;12.82;;
45326;SDS011;31062;49.678;24.560;2024-01-30T08:25:39;30.35;;;12.35;;
45326;SDS011;31062;49.678;24.560;2024-01-30T08:28:25;26.08;;;13.48;;
45326;SDS011;31062;49.678;24.560;2024-01-30T08:31:12;33.67;;;15.00;;
45326;SDS011;31062;49.678;24.560;2024-01-30T08:33:57;38.88;;;15.07;;
45326;SDS011;31062;49.678;24.560;2024-01-30T08:37:04;29.85;;;13.88;;
45326;SDS011;31062;49.678;24.560;2024-01-30T08:40:10;31.52;;;13.43;;
45326;SDS011;31062;49.678;24.560;2024-01-30T08:42:55;29.52;;;12.48;;
45326;SDS011;31062;49.678;24.560;2024-01-30T08:45:41;30.38;;;13.50;;
45326;SDS011;31062;49.678;24.560;2024-01-30T08:48:47;39.00;;;14.48;;
45326;SDS011;31062;49.678;24.560;2024-01-30T08:51:33;33.67;;;13.23;;
45326;SDS011;31062;49.678;24.560;2024-01-30T08:54:39;36.03;;;14.00;;
45326;SDS011;31062;49.678;24.560;2024-01-30T08:57:25;38.85;;;15.85;;
45326;SDS011;31062;49.678;24.560;2024-01-30T09:00:14;33.88;;;14.27;;
45326;SDS011;31062;49.678;24.560;2024-01-30T09:03:00;21.48;;;10.80;;
45326;SDS011;31062;49.678;24.560;2024-01-30T09:05:46;32.70;;;12.45;;
45326;SDS011;31062;49.678;24.560;2024-01-30T09:08:33;28.42;;;13.43;;
45326;SDS011;31062;49.678;24.560;2024-01-30T09:11:39;35.08;;;12.30;;
45326;SDS011;31062;49.678;24.560;2024-01-30T09:14:24;34.83;;;15.15;;
45326;SDS011;31062;49.678;24.560;2024-01-30T09:17:10;31.10;;;13.88;;
45326;SDS011;31062;49.678;24.560;2024-01-30T09:20:18;22.27;;;9.38;;
45326;SDS011;31062;49.678;24.560;2024-01-30T09:23:07;29.25;;;12.27;;
45326;SDS011;31062;49.678;24.560;2024-01-30T09:25:54;36.10;;;13.15;;
45326;SDS011;31062;49.678;24.560;2024-01-30T09:28:40;28.80;;;13.10;;
45326;SDS011;31062;49.678;24.560;2024-01-30T09:31:45;30.65;;;13.38;;
45326;SDS011;31062;49.678;24.560;2024-01-30T09:34:33;32.65;;;12.63;;
45326;SDS011;31062;49.678;24.560;2024-01-30T09:37:20;33.45;;;13.88;;
45326;SDS011;31062;49.678;24.560;2024-01-30T09:40:09;30.00;;;12.52;;
45326;SDS011;31062;49.678;24.560;2024-01-30T09:42:55;34.08;;;14.40;;
45326;SDS011;31062;49.678;24.560;2024-01-30T09:45:43;22.08;;;11.88;;
45326;SDS011;31062;49.678;24.560;2024-01-30T09:48:51;33.83;;;13.60;;
45326;SDS011;31062;49.678;24.560;2024-01-30T09:51:38;26.33;;;11.18;;
45326;SDS011;31062;49.678;24.560;2024-01-30T09:54:44;30.05;;;12.98;;
45326;SDS011;31062;49.678;24.560;2024-01-30T09:57:50;20.15;;;9.93;;
45326;SDS011;31062;49.678;24.560;2024-01-30T10:00:36;25.98;;;11.43;;
45326;SDS011;31062;49.678;24.560;2024-01-30T10:03:44;24.90;;;12.15;;
45326;SDS011;31062;49.678;24.560;2024-01-30T10:06:50;27.02;;;12.10;;
45326;SDS011;31062;49.678;24.560;2024-01-30T10:09:59;23.52;;;10.25;;
45326;SDS011;31062;49.678;24.560;2024-01-30T10:13:05;25.67;;;11.85;;
45326;SDS011;31062;49.678;24.560;2024-01-30T10:16:13;24.23;;;11.93;;
45326;SDS011;31062;49.678;24.560;2024-01-30T10:19:19;24.80;;;11.60;;
45326;SDS011;31062;49.678;24.560;2024-01-30T10:22:25;26.98;;;11.93;;
45326;SDS011;31062;49.678;24.560;2024-01-30T10:25:31;26.25;;;12.98;;
45326;SDS011;31062;49.678;24.560;2024-01-30T10:28:18;27.10;;;12.50;;
45326;SDS011;31062;49.678;24.560;2024-01-30T10:31:03;26.30;;;12.32;;
45326;SDS011;31062;49.678;24.560;2024-01-30T10:33:51;24.30;;;11.75;;
45326;SDS011;31062;49.678;24.560;2024-01-30T10:37:08;26.25;;;11.30;;
45326;SDS011;31062;49.678;24.560;2024-01-30T10:40:20;22.20;;;12.05;;
45326;SDS011;31062;49.678;24.560;2024-01-30T10:43:07;25.23;;;12.40;;
45326;SDS011;31062;49.678;24.560;2024-01-30T10:45:57;25.40;;;13.50;;
45326;SDS011;31062;49.678;24.560;2024-01-30T10:49:12;25.52;;;12.80;;
45326;SDS011;31062;49.678;24.560;2024-01-30T10:51:59;20.35;;;10.88;;
45326;SDS011;31062;49.678;24.560;2024-01-30T10:55:03;23.75;;;12.50;;
45326;SDS011;31062;49.678;24.560;2024-01-30T10:57:52;25.70;;;13.10;;
45326;SDS011;31062;49.678;24.560;2024-01-30T11:00:58;26.42;;;13.38;;
45326;SDS011;31062;49.678;24.560;2024-01-30T11:04:04;23.15;;;11.32;;
45326;SDS011;31062;49.678;24.560;2024-01-30T11:07:17;24.35;;;11.13;;
45326;SDS011;31062;49.678;24.560;2024-01-30T11:13:10;21.45;;;10.23;;
45326;SDS011;31062;49.678;24.560;2024-01-30T11:16:04;22.27;;;12.13;;
45326;SDS011;31062;49.678;24.560;2024-01-30T11:19:11;21.65;;;12.90;;
45326;SDS011;31062;49.678;24.560;2024-01-30T11:22:19;28.92;;;11.85;;
45326;SDS011;31062;49.678;24.560;2024-01-30T11:25:06;24.13;;;11.98;;
45326;SDS011;31062;49.678;24.560;2024-01-30T11:28:15;22.58;;;12.07;;
45326;SDS011;31062;49.678;24.560;2024-01-30T11:31:21;25.83;;;12.10;;
45326;SDS011;31062;49.678;24.560;2024-01-30T11:34:07;31.50;;;15.90;;
45326;SDS011;31062;49.678;24.560;2024-01-30T11:36:59;22.77;;;11.90;;
45326;SDS011;31062;49.678;24.560;2024-01-30T11:40:10;27.85;;;14.38;;
45326;SDS011;31062;49.678;24.560;2024-01-30T11:43:17;26.27;;;12.93;;
45326;SDS011;31062;49.678;24.560;2024-01-30T11:46:24;24.95;;;12.15;;
45326;SDS011;31062;49.678;24.560;2024-01-30T11:49:12;26.73;;;13.93;;
45326;SDS011;31062;49.678;24.560;2024-01-30T11:52:17;23.42;;;11.98;;
45326;SDS011;31062;49.678;24.560;2024-01-30T11:55:03;28.85;;;12.73;;
45326;SDS011;31062;49.678;24.560;2024-01-30T11:57:50;20.95;;;12.05;;
45326;SDS011;31062;49.678;24.560;2024-01-30T12:00:36;24.20;;;13.35;;
45326;SDS011;31062;49.678;24.560;2024-01-30T12:03:42;23.90;;;12.00;;
45326;SDS011;31062;49.678;24.560;2024-01-30T12:06:51;22.35;;;12.30;;
45326;SDS011;31062;49.678;24.560;2024-01-30T12:09:57;20.58;;;10.77;;
45326;SDS011;31062;49.678;24.560;2024-01-30T12:12:47;23.73;;;12.32;;
45326;SDS011;31062;49.678;24.560;2024-01-30T12:15:35;24.30;;;11.27;;
45326;SDS011;31062;49.678;24.560;2024-01-30T12:18:21;22.08;;;11.43;;
45326;SDS011;31062;49.678;24.560;2024-01-30T12:21:07;25.10;;;11.35;;
45326;SDS011;31062;49.678;24.560;2024-01-30T12:23:53;21.20;;;11.32;;
45326;SDS011;31062;49.678;24.560;2024-01-30T12:26:39;21.08;;;10.32;;
45326;SDS011;31062;49.678;24.560;2024-01-30T12:29:25;23.27;;;11.20;;
45326;SDS011;31062;49.678;24.560;2024-01-30T12:32:31;20.67;;;11.80;;
45326;SDS011;31062;49.678;24.560;2024-01-30T12:35:20;20.98;;;11.27;;
45326;SDS011;31062;49.678;24.560;2024-01-30T12:38:07;31.75;;;13.05;;
45326;SDS011;31062;49.678;24.560;2024-01-30T12:40:54;22.40;;;10.88;;
45326;SDS011;31062;49.678;24.560;2024-01-30T12:43:40;21.35;;;11.23;;
45326;SDS011;31062;49.678;24.560;2024-01-30T12:46:29;24.95;;;13.48;;
45326;SDS011;31062;49.678;24.560;2024-01-30T12:49:15;17.38;;;10.43;;
45326;SDS011;31062;49.678;24.560;2024-01-30T12:52:21;22.60;;;11.20;;
45326;SDS011;31062;49.678;24.560;2024-01-30T12:55:07;17.45;;;10.38;;
45326;SDS011;31062;49.678;24.560;2024-01-30T12:58:14;19.85;;;10.63;;
45326;SDS011;31062;49.678;24.560;2024-01-30T13:01:19;18.05;;;11.38;;
45326;SDS011;31062;49.678;24.560;2024-01-30T13:04:25;21.38;;;11.25;;
45326;SDS011;31062;49.678;24.560;2024-01-30T13:07:34;16.58;;;10.27;;
45326;SDS011;31062;49.678;24.560;2024-01-30T13:10:21;23.08;;;10.73;;
45326;SDS011;31062;49.678;24.560;2024-01-30T13:13:07;18.95;;;10.25;;
45326;SDS011;31062;49.678;24.560;2024-01-30T13:16:13;17.83;;;9.93;;
45326;SDS011;31062;49.678;24.560;2024-01-30T13:18:59;21.80;;;10.23;;
45326;SDS011;31062;49.678;24.560;2024-01-30T13:22:05;16.17;;;9.90;;
45326;SDS011;31062;49.678;24.560;2024-01-30T13:25:07;20.50;;;10.25;;
45326;SDS011;31062;49.678;24.560;2024-01-30T13:27:53;20.23;;;10.15;;
45326;SDS011;31062;49.678;24.560;2024-01-30T13:30:40;19.30;;;9.70;;
45326;SDS011;31062;49.678;24.560;2024-01-30T13:33:45;15.80;;;9.23;;
45326;SDS011;31062;49.678;24.560;2024-01-30T13:36:53;20.67;;;10.13;;
45326;SDS011;31062;49.678;24.560;2024-01-30T13:39:38;17.05;;;9.48;;
45326;SDS011;31062;49.678;24.560;2024-01-30T13:42:24;22.02;;;12.35;;
45326;SDS011;31062;49.678;24.560;2024-01-30T13:45:30;23.65;;;11.15;;
45326;SDS011;31062;49.678;24.560;2024-01-30T13:48:36;22.05;;;11.05;;
45326;SDS011;31062;49.678;24.560;2024-01-30T13:51:22;16.55;;;9.25;;
45326;SDS011;31062;49.678;24.560;2024-01-30T13:54:08;16.95;;;9.68;;
45326;SDS011;31062;49.678;24.560;2024-01-30T13:57:13;18.27;;;8.43;;
45326;SDS011;31062;49.678;24.560;2024-01-30T14:00:19;16.45;;;8.98;;
45326;SDS011;31062;49.678;24.560;2024-01-30T14:03:07;22.23;;;9.88;;
45326;SDS011;31062;49.678;24.560;2024-01-30T14:06:13;20.98;;;11.48;;
45326;SDS011;31062;49.678;24.560;2024-01-30T14:09:19;15.82;;;9.15;;
45326;SDS011;31062;49.678;24.560;2024-01-30T14:12:24;15.63;;;9.63;;
45326;SDS011;31062;49.678;24.560;2024-01-30T14:15:30;14.60;;;8.75;;
45326;SDS011;31062;49.678;24.560;2024-01-30T14:18:36;20.60;;;10.38;;
45326;SDS011;31062;49.678;24.560;2024-01-30T14:21:22;26.63;;;13.23;;
45326;SDS011;31062;49.678;24.560;2024-01-30T14:24:09;27.92;;;13.88;;
45326;SDS011;31062;49.678;24.560;2024-01-30T14:26:56;29.50;;;13.80;;
45326;SDS011;31062;49.678;24.560;2024-01-30T14:29:42;27.58;;;13.27;;
45326;SDS011;31062;49.678;24.560;2024-01-30T14:32:28;30.15;;;14.00;;
45326;SDS011;31062;49.678;24.560;2024-01-30T14:35:15;24.42;;;13.43;;
45326;SDS011;31062;49.678;24.560;2024-01-30T14:38:01;31.35;;;14.60;;
45326;SDS011;31062;49.678;24.560;2024-01-30T14:40:47;29.17;;;13.80;;
45326;SDS011;31062;49.678;24.560;2024-01-30T14:43:53;31.77;;;14.90;;
45326;SDS011;31062;49.678;24.560;2024-01-30T14:46:58;42.53;;;18.23;;
45326;SDS011;31062;49.678;24.560;2024-01-30T14:49:45;44.85;;;20.65;;
45326;SDS011;31062;49.678;24.560;2024-01-30T14:52:31;56.10;;;24.38;;
45326;SDS011;31062;49.678;24.560;2024-01-30T14:55:17;53.15;;;24.40;;
45326;SDS011;31062;49.678;24.560;2024-01-30T14:58:03;52.55;;;25.00;;
45326;SDS011;31062;49.678;24.560;2024-01-30T15:00:49;50.70;;;24.80;;
45326;SDS011;31062;49.678;24.560;2024-01-30T15:03:55;44.72;;;22.20;;
45326;SDS011;31062;49.678;24.560;2024-01-30T15:07:02;38.80;;;17.98;;
45326;SDS011;31062;49.678;24.560;2024-01-30T15:10:21;45.28;;;21.90;;
45326;SDS011;31062;49.678;24.560;2024-01-30T15:13:27;48.90;;;21.38;;
45326;SDS011;31062;49.678;24.560;2024-01-30T15:16:32;60.78;;;26.45;;
45326;SDS011;31062;49.678;24.560;2024-01-30T15:19:38;89.75;;;36.22;;
45326;SDS011;31062;49.678;24.560;2024-01-30T15:22:43;222.48;;;78.07;;
45326;SDS011;31062;49.678;24.560;2024-01-30T15:25:30;324.98;;;108.45;;
45326;SDS011;31062;49.678;24.560;2024-01-30T15:28:36;325.08;;;107.40;;
45326;SDS011;31062;49.678;24.560;2024-01-30T15:31:43;202.98;;;74.20;;
45326;SDS011;31062;49.678;24.560;2024-01-30T15:34:49;191.15;;;68.45;;
45326;SDS011;31062;49.678;24.560;2024-01-30T15:37:35;234.95;;;80.53;;
45326;SDS011;31062;49.678;24.560;2024-01-30T15:40:20;181.80;;;62.75;;
45326;SDS011;31062;49.678;24.560;2024-01-30T15:43:26;115.43;;;45.45;;
45326;SDS011;31062;49.678;24.560;2024-01-30T15:46:32;85.18;;;33.95;;
45326;SDS011;31062;49.678;24.560;2024-01-30T15:49:19;74.43;;;31.67;;
45326;SDS011;31062;49.678;24.560;2024-01-30T15:52:04;82.18;;;32.70;;
45326;SDS011;31062;49.678;24.560;2024-01-30T15:54:51;83.50;;;30.10;;
45326;SDS011;31062;49.678;24.560;2024-01-30T15:57:56;80.85;;;28.80;;
45326;SDS011;31062;49.678;24.560;2024-01-30T16:01:03;53.22;;;23.75;;
45326;SDS011;31062;49.678;24.560;2024-01-30T16:04:09;47.85;;;19.92;;
45326;SDS011;31062;49.678;24.560;2024-01-30T16:06:54;39.95;;;18.35;;
45326;SDS011;31062;49.678;24.560;2024-01-30T16:09:40;42.08;;;17.27;;
45326;SDS011;31062;49.678;24.560;2024-01-30T16:12:27;41.90;;;18.90;;
45326;SDS011;31062;49.678;24.560;2024-01-30T16:15:13;43.20;;;20.90;;
45326;SDS011;31062;49.678;24.560;2024-01-30T16:18:00;47.17;;;23.50;;
45326;SDS011;31062;49.678;24.560;2024-01-30T16:20:47;46.08;;;24.60;;
45326;SDS011;31062;49.678;24.560;2024-01-30T16:23:50;57.60;;;27.35;;
45326;SDS011;31062;49.678;24.560;2024-01-30T16:26:35;61.20;;;25.90;;
45326;SDS011;31062;49.678;24.560;2024-01-30T16:29:22;62.05;;;27.75;;
45326;SDS011;31062;49.678;24.560;2024-01-30T16:32:12;70.43;;;30.65;;
45326;SDS011;31062;49.678;24.560;2024-01-30T16:35:19;78.05;;;32.78;;
45326;SDS011;31062;49.678;24.560;2024-01-30T16:38:07;69.88;;;30.70;;
45326;SDS011;31062;49.678;24.560;2024-01-30T16:40:53;68.50;;;30.02;;
45326;SDS011;31062;49.678;24.560;2024-01-30T16:43:38;61.45;;;29.17;;
45326;SDS011;31062;49.678;24.560;2024-01-30T16:46:26;56.90;;;26.98;;